Marianne — VRFM5 — position and weather

sailwx.info

Track history (hours):
 
Tides and Currents Weather Stations Pressure Air Temp Water Temp Dewpoint Dewpoint Depression Visibility Wind Speed Wind Dir Waves Ship Positions

Marianne

Last reported at 2017-Feb-18 09:32 UTC. Time now 2017-Feb-19 23:33 UTC.
Position N 55°19' E 011°03'.

Length 97 m; draft 5.5 m.

Type: Ship (hazmat cat B). MMSI: 477560836.

Date/timePositionNaut miles runAvg speedWind from/ knotsBaromVisibWave heightAir tempDewpointWater temp
2017-Feb-18 09:32N 55°19' E 011°03'1010.6
2017-Feb-18 08:33N 55°09' E 011°03'1211.9
2017-Feb-18 07:34N 54°58' E 010°59'1110.7
2017-Feb-18 06:33N 54°47' E 010°53'1111.2
2017-Feb-18 05:33N 54°38' E 011°04'1212.1
2017-Feb-18 04:33N 54°33' E 011°23'1312.8
2017-Feb-18 03:33N 54°27' E 011°43'1212.5
2017-Feb-18 02:33N 54°26' E 012°04'1211.8
2017-Feb-18 01:33N 54°36' E 012°15'1313.3
2017-Feb-18 00:33N 54°44' E 012°33'4613.1
2017-Feb-17 21:03N 55°01' E 013°47'813.2
2017-Feb-17 20:28N 55°04' E 013°60'1212.9
2017-Feb-17 19:33N 55°12' E 014°15'1313.2
2017-Feb-17 18:33N 55°22' E 014°30'1212.2
2017-Feb-17 17:34N 55°28' E 014°48'1313.3
2017-Feb-17 16:34N 55°29' E 015°12'1413.5
2017-Feb-17 15:33N 55°30' E 015°36'1313.1
2017-Feb-17 14:33N 55°30' E 015°59'1312.7
2017-Feb-17 13:33N 55°31' E 016°21'6312.4
2017-Feb-17 08:31N 55°07' E 018°02'1212.0
2017-Feb-17 07:33N 55°04' E 018°21'1212.4
2017-Feb-17 06:33N 54°58' E 018°40'1312.8
2017-Feb-17 05:33N 54°49' E 018°56'1111.2
2017-Feb-17 04:33N 54°37' E 018°55'1212.0
2017-Feb-17 03:33N 54°31' E 018°37'2 2.3
2017-Feb-17 02:33N 54°32' E 018°33'0 0.0
2017-Feb-17 01:31N 54°32' E 018°33'0 0.0
2017-Feb-17 00:31N 54°32' E 018°33'0 0.0
2017-Feb-16 23:31N 54°32' E 018°33'0 0.0
2017-Feb-16 22:31N 54°32' E 018°33'0 0.0
2017-Feb-16 21:31N 54°32' E 018°33'0 0.0
2017-Feb-16 20:31N 54°32' E 018°33'0 0.0
2017-Feb-16 19:31N 54°32' E 018°33'0 0.0
2017-Feb-16 18:31N 54°32' E 018°33'0 0.0
2017-Feb-16 17:31N 54°32' E 018°33'0 0.0
2017-Feb-16 16:31N 54°32' E 018°33'0 0.0
2017-Feb-16 15:31N 54°32' E 018°33'0 0.0
2017-Feb-16 14:31N 54°32' E 018°33'0 0.0
2017-Feb-16 13:31N 54°32' E 018°33'0 0.0
2017-Feb-16 12:31N 54°32' E 018°33'0 0.0
2017-Feb-16 11:31N 54°32' E 018°33'0 0.0
2017-Feb-16 10:31N 54°32' E 018°33'0 0.0
2017-Feb-16 09:31N 54°32' E 018°33'0 0.0
2017-Feb-16 08:31N 54°32' E 018°33'0 0.0
2017-Feb-16 07:31N 54°32' E 018°33'1 0.8
2017-Feb-16 06:33N 54°31' E 018°34'5 4.9
2017-Feb-16 05:31N 54°31' E 018°42'0 0.0
2017-Feb-16 04:31N 54°31' E 018°43'0 0.0
2017-Feb-16 03:31N 54°31' E 018°43'0 0.0
2017-Feb-16 02:31N 54°31' E 018°42'4 4.6
2017-Feb-16 01:33N 54°33' E 018°49'1312.8
2017-Feb-16 00:33N 54°45' E 018°60'1212.2
2017-Feb-15 23:33N 54°54' E 018°46'1312.8
2017-Feb-15 22:33N 55°02' E 018°28'1313.4
2017-Feb-15 21:34N 55°08' E 018°07'10813.2
2017-Feb-15 13:20N 55°58' E 015°17'1013.3
2017-Feb-15 12:33N 56°02' E 015°01'9 9.2
2017-Feb-15 11:33N 56°09' E 014°50'0 0.0
2017-Feb-14 16:33N 56°09' E 014°50'7 7.1
2017-Feb-14 15:33N 56°03' E 014°57'2813.0
2017-Feb-14 13:23N 55°51' E 015°42'1112.9
2017-Feb-14 12:33N 55°46' E 015°59'1512.7
2017-Feb-14 11:21N 55°38' E 016°23'1012.6
2017-Feb-14 10:33N 55°34' E 016°38'1212.3
2017-Feb-14 09:33N 55°28' E 016°58'1412.5
2017-Feb-14 08:27N 55°22' E 017°19'1112.6
2017-Feb-14 07:33N 55°18' E 017°38'1312.8
2017-Feb-14 06:33N 55°20' E 018°00'1111.0
2017-Feb-14 05:33N 55°15' E 018°18'1312.8
2017-Feb-14 04:33N 55°03' E 018°27'1212.0
2017-Feb-14 03:33N 54°56' E 018°43'1212.4
2017-Feb-14 02:33N 54°47' E 018°58'1211.6
2017-Feb-14 01:33N 54°36' E 018°54'1211.9
2017-Feb-14 00:33N 54°31' E 018°35'1 1.2
2017-Feb-13 23:33N 54°32' E 018°33'0 0.0
2017-Feb-13 22:31N 54°32' E 018°33'0 0.0
2017-Feb-13 21:31N 54°32' E 018°33'0 0.0
2017-Feb-13 20:31N 54°32' E 018°33'0 0.0
2017-Feb-13 19:28N 54°32' E 018°33'0 0.0
2017-Feb-13 18:31N 54°32' E 018°33'0 0.0
2017-Feb-13 17:31N 54°32' E 018°33'0 0.0
2017-Feb-13 16:31N 54°32' E 018°33'0 0.0
2017-Feb-13 15:31N 54°32' E 018°33'0 0.0
2017-Feb-13 14:31N 54°32' E 018°33'0 0.0
2017-Feb-13 13:31N 54°32' E 018°33'0 0.0
2017-Feb-13 12:31N 54°32' E 018°33'0 0.0
2017-Feb-13 11:31N 54°32' E 018°33'0 0.0
2017-Feb-13 10:31N 54°32' E 018°33'0 0.0
2017-Feb-13 09:31N 54°32' E 018°33'0 0.0
2017-Feb-13 08:31N 54°32' E 018°33'0 0.0
2017-Feb-13 07:28N 54°32' E 018°33'0 0.0
2017-Feb-13 06:31N 54°32' E 018°33'0 0.0
2017-Feb-13 05:31N 54°32' E 018°33'0 0.0
2017-Feb-13 04:31N 54°32' E 018°33'0 0.0
2017-Feb-13 03:31N 54°32' E 018°33'0 0.0
2017-Feb-13 02:31N 54°32' E 018°33'0 0.0
2017-Feb-13 01:31N 54°32' E 018°33'0 0.0
2017-Feb-13 00:31N 54°32' E 018°33'0 0.0
2017-Feb-12 23:31N 54°32' E 018°33'3 3.2
2017-Feb-12 22:33N 54°32' E 018°39'2 1.7
2017-Feb-12 21:23N 54°31' E 018°42'0 0.0
2017-Feb-12 20:32N 54°31' E 018°42'0 0.0
2017-Feb-12 19:32N 54°31' E 018°42'0 0.0
2017-Feb-12 18:34N 54°31' E 018°42'0 0.0
2017-Feb-12 17:34N 54°31' E 018°42'7 6.9
2017-Feb-12 16:34N 54°35' E 018°52'1211.8
2017-Feb-12 15:33N 54°46' E 018°59'1211.8
2017-Feb-12 14:34N 54°55' E 018°44'1111.1
2017-Feb-12 13:33N 55°01' E 018°29'1211.8
2017-Feb-12 12:33N 55°07' E 018°11'  
2017-Feb-08 21:34N 55°04' E 018°20'1413.6
2017-Feb-08 20:34N 54°57' E 018°41'1414.1
2017-Feb-08 19:33N 54°47' E 018°59'1212.1
2017-Feb-08 18:33N 54°35' E 018°54'1010.2
2017-Feb-08 17:33N 54°32' E 018°37'2 2.2
2017-Feb-08 16:33N 54°32' E 018°33'0 0.0
2017-Feb-08 15:32N 54°32' E 018°33'0 0.0
2017-Feb-08 14:32N 54°32' E 018°33'0 0.0
2017-Feb-08 13:32N 54°32' E 018°33'0 0.0
2017-Feb-08 12:32N 54°32' E 018°33'0 0.0
2017-Feb-08 11:32N 54°32' E 018°33'0 0.0
2017-Feb-08 10:32N 54°32' E 018°33'  
Track history (hours):
 
Tides and Currents Weather Stations Pressure Air Temp Water Temp Dewpoint Dewpoint Depression Visibility Wind Speed Wind Dir Waves Ship Positions

Marianne

Last reported at 2017-Feb-18 09:32 UTC. Time now 2017-Feb-19 23:33 UTC.
Position N 55°19' E 011°03'.

Length 97 m; draft 5.5 m.

Type: Ship (hazmat cat B). MMSI: 477560836.

Date/timePositionNaut miles runAvg speedWind from/ knotsBaromVisibWave heightAir tempDewpointWater temp
2017-Feb-18 09:32N 55°19' E 011°03'1010.6
2017-Feb-18 08:33N 55°09' E 011°03'1211.9
2017-Feb-18 07:34N 54°58' E 010°59'1110.7
2017-Feb-18 06:33N 54°47' E 010°53'1111.2
2017-Feb-18 05:33N 54°38' E 011°04'1212.1
2017-Feb-18 04:33N 54°33' E 011°23'1312.8
2017-Feb-18 03:33N 54°27' E 011°43'1212.5
2017-Feb-18 02:33N 54°26' E 012°04'1211.8
2017-Feb-18 01:33N 54°36' E 012°15'1313.3
2017-Feb-18 00:33N 54°44' E 012°33'4613.1
2017-Feb-17 21:03N 55°01' E 013°47'813.2
2017-Feb-17 20:28N 55°04' E 013°60'1212.9
2017-Feb-17 19:33N 55°12' E 014°15'1313.2
2017-Feb-17 18:33N 55°22' E 014°30'1212.2
2017-Feb-17 17:34N 55°28' E 014°48'1313.3
2017-Feb-17 16:34N 55°29' E 015°12'1413.5
2017-Feb-17 15:33N 55°30' E 015°36'1313.1
2017-Feb-17 14:33N 55°30' E 015°59'1312.7
2017-Feb-17 13:33N 55°31' E 016°21'6312.4
2017-Feb-17 08:31N 55°07' E 018°02'1212.0
2017-Feb-17 07:33N 55°04' E 018°21'1212.4
2017-Feb-17 06:33N 54°58' E 018°40'1312.8
2017-Feb-17 05:33N 54°49' E 018°56'1111.2
2017-Feb-17 04:33N 54°37' E 018°55'1212.0
2017-Feb-17 03:33N 54°31' E 018°37'2 2.3
2017-Feb-17 02:33N 54°32' E 018°33'0 0.0
2017-Feb-17 01:31N 54°32' E 018°33'0 0.0
2017-Feb-17 00:31N 54°32' E 018°33'0 0.0
2017-Feb-16 23:31N 54°32' E 018°33'0 0.0
2017-Feb-16 22:31N 54°32' E 018°33'0 0.0
2017-Feb-16 21:31N 54°32' E 018°33'0 0.0
2017-Feb-16 20:31N 54°32' E 018°33'0 0.0
2017-Feb-16 19:31N 54°32' E 018°33'0 0.0
2017-Feb-16 18:31N 54°32' E 018°33'0 0.0
2017-Feb-16 17:31N 54°32' E 018°33'0 0.0
2017-Feb-16 16:31N 54°32' E 018°33'0 0.0
2017-Feb-16 15:31N 54°32' E 018°33'0 0.0
2017-Feb-16 14:31N 54°32' E 018°33'0 0.0
2017-Feb-16 13:31N 54°32' E 018°33'0 0.0
2017-Feb-16 12:31N 54°32' E 018°33'0 0.0
2017-Feb-16 11:31N 54°32' E 018°33'0 0.0
2017-Feb-16 10:31N 54°32' E 018°33'0 0.0
2017-Feb-16 09:31N 54°32' E 018°33'0 0.0
2017-Feb-16 08:31N 54°32' E 018°33'0 0.0
2017-Feb-16 07:31N 54°32' E 018°33'1 0.8
2017-Feb-16 06:33N 54°31' E 018°34'5 4.9
2017-Feb-16 05:31N 54°31' E 018°42'0 0.0
2017-Feb-16 04:31N 54°31' E 018°43'0 0.0
2017-Feb-16 03:31N 54°31' E 018°43'0 0.0
2017-Feb-16 02:31N 54°31' E 018°42'4 4.6
2017-Feb-16 01:33N 54°33' E 018°49'1312.8
2017-Feb-16 00:33N 54°45' E 018°60'1212.2
2017-Feb-15 23:33N 54°54' E 018°46'1312.8
2017-Feb-15 22:33N 55°02' E 018°28'1313.4
2017-Feb-15 21:34N 55°08' E 018°07'10813.2
2017-Feb-15 13:20N 55°58' E 015°17'1013.3
2017-Feb-15 12:33N 56°02' E 015°01'9 9.2
2017-Feb-15 11:33N 56°09' E 014°50'0 0.0
2017-Feb-14 16:33N 56°09' E 014°50'7 7.1
2017-Feb-14 15:33N 56°03' E 014°57'2813.0
2017-Feb-14 13:23N 55°51' E 015°42'1112.9
2017-Feb-14 12:33N 55°46' E 015°59'1512.7
2017-Feb-14 11:21N 55°38' E 016°23'1012.6
2017-Feb-14 10:33N 55°34' E 016°38'1212.3
2017-Feb-14 09:33N 55°28' E 016°58'1412.5
2017-Feb-14 08:27N 55°22' E 017°19'1112.6
2017-Feb-14 07:33N 55°18' E 017°38'1312.8
2017-Feb-14 06:33N 55°20' E 018°00'1111.0
2017-Feb-14 05:33N 55°15' E 018°18'1312.8
2017-Feb-14 04:33N 55°03' E 018°27'1212.0
2017-Feb-14 03:33N 54°56' E 018°43'1212.4
2017-Feb-14 02:33N 54°47' E 018°58'1211.6
2017-Feb-14 01:33N 54°36' E 018°54'1211.9
2017-Feb-14 00:33N 54°31' E 018°35'1 1.2
2017-Feb-13 23:33N 54°32' E 018°33'0 0.0
2017-Feb-13 22:31N 54°32' E 018°33'0 0.0
2017-Feb-13 21:31N 54°32' E 018°33'0 0.0
2017-Feb-13 20:31N 54°32' E 018°33'0 0.0
2017-Feb-13 19:28N 54°32' E 018°33'0 0.0
2017-Feb-13 18:31N 54°32' E 018°33'0 0.0
2017-Feb-13 17:31N 54°32' E 018°33'0 0.0
2017-Feb-13 16:31N 54°32' E 018°33'0 0.0
2017-Feb-13 15:31N 54°32' E 018°33'0 0.0
2017-Feb-13 14:31N 54°32' E 018°33'0 0.0
2017-Feb-13 13:31N 54°32' E 018°33'0 0.0
2017-Feb-13 12:31N 54°32' E 018°33'0 0.0
2017-Feb-13 11:31N 54°32' E 018°33'0 0.0
2017-Feb-13 10:31N 54°32' E 018°33'0 0.0
2017-Feb-13 09:31N 54°32' E 018°33'0 0.0
2017-Feb-13 08:31N 54°32' E 018°33'0 0.0
2017-Feb-13 07:28N 54°32' E 018°33'0 0.0
2017-Feb-13 06:31N 54°32' E 018°33'0 0.0
2017-Feb-13 05:31N 54°32' E 018°33'0 0.0
2017-Feb-13 04:31N 54°32' E 018°33'0 0.0
2017-Feb-13 03:31N 54°32' E 018°33'0 0.0
2017-Feb-13 02:31N 54°32' E 018°33'0 0.0
2017-Feb-13 01:31N 54°32' E 018°33'0 0.0
2017-Feb-13 00:31N 54°32' E 018°33'0 0.0
2017-Feb-12 23:31N 54°32' E 018°33'3 3.2
2017-Feb-12 22:33N 54°32' E 018°39'2 1.7
2017-Feb-12 21:23N 54°31' E 018°42'0 0.0
2017-Feb-12 20:32N 54°31' E 018°42'0 0.0
2017-Feb-12 19:32N 54°31' E 018°42'0 0.0
2017-Feb-12 18:34N 54°31' E 018°42'0 0.0
2017-Feb-12 17:34N 54°31' E 018°42'7 6.9
2017-Feb-12 16:34N 54°35' E 018°52'1211.8
2017-Feb-12 15:33N 54°46' E 018°59'1211.8
2017-Feb-12 14:34N 54°55' E 018°44'1111.1
2017-Feb-12 13:33N 55°01' E 018°29'1211.8
2017-Feb-12 12:33N 55°07' E 018°11'  
2017-Feb-08 21:34N 55°04' E 018°20'1413.6
2017-Feb-08 20:34N 54°57' E 018°41'1414.1
2017-Feb-08 19:33N 54°47' E 018°59'1212.1
2017-Feb-08 18:33N 54°35' E 018°54'1010.2
2017-Feb-08 17:33N 54°32' E 018°37'2 2.2
2017-Feb-08 16:33N 54°32' E 018°33'0 0.0
2017-Feb-08 15:32N 54°32' E 018°33'0 0.0
2017-Feb-08 14:32N 54°32' E 018°33'0 0.0
2017-Feb-08 13:32N 54°32' E 018°33'0 0.0
2017-Feb-08 12:32N 54°32' E 018°33'0 0.0
2017-Feb-08 11:32N 54°32' E 018°33'0 0.0
2017-Feb-08 10:32N 54°32' E 018°33'  

Dump ship's entire track history